createdAt,value
2017-10-02T03:30:41.664Z,11.90
2017-10-02T03:33:09.333Z,11.90
2017-10-02T03:35:37.045Z,11.90
2017-10-02T03:38:04.678Z,11.90
2017-10-02T03:40:32.299Z,11.90
2017-10-02T03:42:59.936Z,11.80
2017-10-02T03:45:27.547Z,11.80
2017-10-02T03:47:55.148Z,11.80
2017-10-02T03:50:22.759Z,11.90
2017-10-02T03:52:50.364Z,11.90
2017-10-02T03:55:19.122Z,11.80
2017-10-02T03:57:46.744Z,11.80
2017-10-02T04:00:14.361Z,11.50
2017-10-02T04:02:42.057Z,11.20
2017-10-02T04:05:09.648Z,11.10
2017-10-02T04:07:37.253Z,11.10
2017-10-02T04:10:05.636Z,11.40
2017-10-02T04:12:34.014Z,11.60
2017-10-02T04:15:04.193Z,11.80
2017-10-02T04:17:31.783Z,11.70
2017-10-02T04:20:00.147Z,11.90
2017-10-02T04:22:27.782Z,11.90
2017-10-02T04:24:55.397Z,11.90
2017-10-02T04:27:23.760Z,11.90
2017-10-02T04:29:52.532Z,11.90
2017-10-02T04:32:20.134Z,11.80
2017-10-02T04:34:47.734Z,11.80
2017-10-02T04:37:15.367Z,11.70
2017-10-02T04:39:42.977Z,11.70
2017-10-02T04:42:10.618Z,11.70
2017-10-02T04:44:38.227Z,11.80
2017-10-02T04:47:06.595Z,11.90
2017-10-02T04:49:35.001Z,11.80
2017-10-02T04:52:02.620Z,11.80
2017-10-02T04:54:30.444Z,11.80
2017-10-02T04:56:58.071Z,11.80
2017-10-02T04:59:26.436Z,11.50
2017-10-02T05:01:54.073Z,11.50
2017-10-02T05:04:21.672Z,11.40
2017-10-02T05:06:50.044Z,11.60
2017-10-02T05:09:18.450Z,11.80
2017-10-02T05:11:46.052Z,11.80
2017-10-02T05:14:13.700Z,11.80
2017-10-02T05:16:41.338Z,11.80
2017-10-02T05:19:08.941Z,11.80
2017-10-02T05:21:36.564Z,11.80
2017-10-02T05:24:04.165Z,11.80
2017-10-02T05:26:31.796Z,11.90
2017-10-02T05:28:59.404Z,12.00
2017-10-02T05:31:27.771Z,12.00
2017-10-02T05:33:55.420Z,12.00
2017-10-02T05:36:23.021Z,12.00
2017-10-02T05:38:51.406Z,12.20
2017-10-02T05:41:19.033Z,12.20
2017-10-02T05:43:46.650Z,12.20
2017-10-02T05:46:14.285Z,12.10
2017-10-02T05:48:41.896Z,11.90
2017-10-02T05:51:09.507Z,11.80
2017-10-02T05:53:37.153Z,11.90
2017-10-02T05:56:05.524Z,12.30
2017-10-02T05:58:33.175Z,12.30
2017-10-02T06:01:00.806Z,12.50
2017-10-02T06:03:28.413Z,12.60
2017-10-02T06:05:56.816Z,12.90
2017-10-02T06:08:24.421Z,12.90
2017-10-02T06:10:52.068Z,13.00
2017-10-02T06:13:19.680Z,12.90
2017-10-02T06:15:48.054Z,13.00
2017-10-02T06:18:16.466Z,13.00
2017-10-02T06:20:44.497Z,13.00
2017-10-02T06:23:12.094Z,13.10
2017-10-02T06:25:39.718Z,13.10
2017-10-02T06:28:08.094Z,13.10
2017-10-02T06:30:35.731Z,13.10
2017-10-02T06:33:03.339Z,13.20
2017-10-02T06:35:30.952Z,13.40
2017-10-02T06:37:59.374Z,13.30
2017-10-02T06:40:27.768Z,13.30
2017-10-02T06:42:55.447Z,13.30
2017-10-02T06:45:23.153Z,13.40
2017-10-02T06:47:50.761Z,13.50
2017-10-02T06:50:18.393Z,13.50
2017-10-02T06:52:46.766Z,13.60
2017-10-02T06:55:15.139Z,13.60
2017-10-02T06:57:43.089Z,13.60
2017-10-02T07:00:10.694Z,13.60
2017-10-02T07:02:38.334Z,13.70
2017-10-02T07:05:05.972Z,13.80
2017-10-02T07:07:33.585Z,14.00
2017-10-02T07:10:01.224Z,14.10
2017-10-02T07:12:29.607Z,14.30
2017-10-02T07:14:57.979Z,14.30
2017-10-02T07:17:26.385Z,14.30
2017-10-02T07:19:53.989Z,14.30
2017-10-02T07:22:21.623Z,14.50
2017-10-02T07:24:50.182Z,14.70
2017-10-02T07:27:17.777Z,14.70
2017-10-02T07:29:45.392Z,14.60
2017-10-02T07:32:13.782Z,14.40
2017-10-02T07:34:41.388Z,14.40
2017-10-02T07:37:09.029Z,14.40
2017-10-02T07:39:36.828Z,14.20
2017-10-02T07:42:04.434Z,14.30
2017-10-02T07:44:32.066Z,14.20
2017-10-02T07:47:00.436Z,14.10
2017-10-02T07:49:28.075Z,14.10
2017-10-02T07:51:55.737Z,14.30
2017-10-02T07:54:23.342Z,14.60
2017-10-02T07:56:51.708Z,14.90
2017-10-02T07:59:20.198Z,15.00
2017-10-02T08:01:48.886Z,15.00
2017-10-02T08:04:17.254Z,14.80
2017-10-02T08:06:45.692Z,14.60
2017-10-02T08:09:13.307Z,14.60
2017-10-02T08:11:41.694Z,14.80
2017-10-02T08:14:09.331Z,14.80
2017-10-02T08:16:36.938Z,15.10
2017-10-02T08:19:04.552Z,15.20
2017-10-02T08:21:32.168Z,15.20
2017-10-02T08:23:59.768Z,15.20
2017-10-02T08:26:27.386Z,15.00
2017-10-02T08:28:55.002Z,15.10
2017-10-02T08:31:23.372Z,15.40
2017-10-02T08:33:51.326Z,15.40
2017-10-02T08:36:18.981Z,15.60
2017-10-02T08:38:46.856Z,15.80
2017-10-02T08:41:14.483Z,15.90
2017-10-02T08:43:42.087Z,16.10
2017-10-02T08:46:09.729Z,16.30
2017-10-02T08:48:37.348Z,16.30
2017-10-02T08:51:04.957Z,16.30
2017-10-02T08:53:32.639Z,16.00
2017-10-02T08:56:00.240Z,16.00
2017-10-02T08:58:27.874Z,15.90
2017-10-02T09:00:56.250Z,16.40
2017-10-02T09:03:24.613Z,16.50
2017-10-02T09:05:52.251Z,16.50
2017-10-02T09:08:19.852Z,16.30
2017-10-02T09:10:48.247Z,16.10
2017-10-02T09:13:15.854Z,16.10
2017-10-02T09:15:43.452Z,16.00
2017-10-02T09:18:11.841Z,16.00
2017-10-02T09:20:39.489Z,16.00
2017-10-02T09:23:07.913Z,16.50
2017-10-02T09:25:35.518Z,16.40
2017-10-02T09:28:03.104Z,16.40
2017-10-02T09:30:30.739Z,16.40
2017-10-02T09:32:58.342Z,16.50
2017-10-02T09:35:25.931Z,16.50
2017-10-02T09:37:53.589Z,16.20
2017-10-02T09:40:21.198Z,16.10
2017-10-02T09:42:49.568Z,16.30
2017-10-02T09:45:17.954Z,16.10
2017-10-02T09:47:46.313Z,16.00
2017-10-02T09:50:14.743Z,16.10
2017-10-02T09:52:42.340Z,16.10
2017-10-02T09:55:09.945Z,16.00
2017-10-02T09:57:37.589Z,16.20
2017-10-02T10:00:05.949Z,16.40
2017-10-02T10:02:33.613Z,16.30
2017-10-02T10:05:01.211Z,16.50
2017-10-02T10:07:28.820Z,16.60
2017-10-02T10:09:56.436Z,16.70
2017-10-02T10:12:24.039Z,16.80
2017-10-02T10:14:51.698Z,17.10
2017-10-02T10:17:19.340Z,17.10
2017-10-02T10:19:46.940Z,17.10
2017-10-02T10:22:14.558Z,17.20
2017-10-02T10:24:42.174Z,17.10
2017-10-02T10:27:10.577Z,17.10
2017-10-02T10:29:38.194Z,17.10
2017-10-02T10:32:05.798Z,17.60
2017-10-02T10:34:33.410Z,18.30
2017-10-02T10:37:01.014Z,18.70
2017-10-02T10:39:28.641Z,18.80
2017-10-02T10:41:56.264Z,19.30
2017-10-02T10:44:24.054Z,20.00
2017-10-02T10:46:51.693Z,20.30
2017-10-02T10:49:19.290Z,20.40
2017-10-02T10:51:46.937Z,20.10
2017-10-02T10:54:14.535Z,19.80
2017-10-02T10:56:42.905Z,19.60
2017-10-02T10:59:11.308Z,19.60
2017-10-02T11:01:38.916Z,19.60
2017-10-02T11:04:06.557Z,19.90
2017-10-02T11:06:34.161Z,20.20
2017-10-02T11:09:04.587Z,19.00
2017-10-02T11:11:43.941Z,19.00
2017-10-02T11:14:11.548Z,19.40
2017-10-02T11:19:15.201Z,20.00
2017-10-02T11:21:43.266Z,20.80
2017-10-02T11:24:10.882Z,21.40
2017-10-02T11:26:38.495Z,21.60
2017-10-02T11:29:06.097Z,21.00
2017-10-02T11:31:33.705Z,20.70
2017-10-02T11:34:01.808Z,20.70
2017-10-02T11:36:29.406Z,20.90
2017-10-02T11:38:57.005Z,21.10
2017-10-02T11:41:24.612Z,21.20
2017-10-02T11:43:52.220Z,21.20
2017-10-02T11:46:20.285Z,20.90
2017-10-02T11:48:47.893Z,20.50
2017-10-02T11:51:15.521Z,20.20
2017-10-02T11:53:43.591Z,19.90
2017-10-02T11:56:11.971Z,19.80
2017-10-02T11:58:39.630Z,19.80
2017-10-02T12:01:07.293Z,19.90
2017-10-02T12:03:34.896Z,19.80
2017-10-02T12:06:02.905Z,19.70
2017-10-02T12:08:30.512Z,19.50
2017-10-02T12:10:58.113Z,19.50
2017-10-02T12:13:25.738Z,19.40
2017-10-02T12:15:53.332Z,19.40
2017-10-02T12:18:21.318Z,19.30
2017-10-02T12:20:48.943Z,19.10
2017-10-02T12:23:16.536Z,18.80
2017-10-02T12:25:44.161Z,18.50
2017-10-02T12:28:11.764Z,18.50
2017-10-02T12:30:39.739Z,18.60
2017-10-02T12:33:07.338Z,18.60
2017-10-02T12:35:34.949Z,18.60
2017-10-02T12:38:02.578Z,18.80
2017-10-02T12:40:30.202Z,18.60
2017-10-02T12:42:58.945Z,18.40
2017-10-02T12:45:26.544Z,18.40
2017-10-02T12:47:54.921Z,18.80
2017-10-02T12:50:23.319Z,18.90
2017-10-02T12:52:51.702Z,19.00
2017-10-02T12:55:19.713Z,18.90
2017-10-02T12:57:47.373Z,19.00
2017-10-02T13:00:14.971Z,19.10
2017-10-02T13:02:43.362Z,19.60
2017-10-02T13:05:11.759Z,20.30
2017-10-02T13:07:39.745Z,20.30
2017-10-02T13:10:07.371Z,21.60
2017-10-02T13:12:35.740Z,21.30
2017-10-02T13:15:04.147Z,20.50
2017-10-02T13:17:31.747Z,20.50
2017-10-02T13:19:59.703Z,20.00
2017-10-02T13:22:27.312Z,19.50
2017-10-02T13:24:55.673Z,19.30
2017-10-02T13:27:23.332Z,19.30
2017-10-02T13:29:50.932Z,19.70
2017-10-02T13:32:18.897Z,20.20
2017-10-02T13:34:46.498Z,20.10
2017-10-02T13:37:14.094Z,20.10
2017-10-02T13:39:42.480Z,19.80
2017-10-02T13:42:10.890Z,19.70
2017-10-02T13:44:38.906Z,19.70
2017-10-02T13:47:06.593Z,19.70
2017-10-02T13:49:34.973Z,19.70
2017-10-02T13:52:03.360Z,19.60
2017-10-02T13:54:31.814Z,19.40
2017-10-02T13:56:59.885Z,19.40
2017-10-02T13:59:27.491Z,19.40
2017-10-02T14:01:55.090Z,19.20
2017-10-02T14:04:22.689Z,19.30
2017-10-02T14:06:51.049Z,19.20
2017-10-02T14:09:19.032Z,19.20
2017-10-02T14:11:47.413Z,19.20
2017-10-02T14:14:15.784Z,19.00
2017-10-02T14:16:44.178Z,19.10
2017-10-02T14:19:11.780Z,19.00
2017-10-02T14:21:39.768Z,19.10
2017-10-02T14:24:07.377Z,19.10
2017-10-02T14:26:34.990Z,19.20
2017-10-02T14:29:02.954Z,19.20
2017-10-02T14:31:30.609Z,19.20
2017-10-02T14:33:58.323Z,19.00
2017-10-02T14:36:31.017Z,19.00
2017-10-02T14:48:05.212Z,18.70
2017-10-02T14:53:26.893Z,18.70
2017-10-02T14:58:50.961Z,18.60
2017-10-02T15:01:47.139Z,18.60
2017-10-02T15:04:16.804Z,18.50
2017-10-02T15:06:58.053Z,18.50
2017-10-02T15:09:28.386Z,18.60
2017-10-02T15:12:02.434Z,18.40
2017-10-02T15:14:41.051Z,18.30
2017-10-02T15:17:35.284Z,18.30
2017-10-02T15:23:01.306Z,18.40
2017-10-02T15:25:30.693Z,18.40
2017-10-02T15:27:58.692Z,18.50
2017-10-02T15:30:26.291Z,18.30
2017-10-02T15:32:53.887Z,18.10
2017-10-02T15:35:21.506Z,18.10
2017-10-02T15:37:49.103Z,18.00
2017-10-02T15:40:17.269Z,17.90
2017-10-02T15:42:44.874Z,17.70
2017-10-02T15:45:12.501Z,17.60
2017-10-02T15:47:50.957Z,17.50
2017-10-02T15:50:18.558Z,17.50
2017-10-02T15:52:46.662Z,17.70
2017-10-02T15:55:15.100Z,17.70
2017-10-02T15:57:42.710Z,17.70
2017-10-02T16:00:13.258Z,17.60
2017-10-02T16:02:40.966Z,17.60
2017-10-02T16:05:09.054Z,17.70
2017-10-02T16:07:36.653Z,17.60
2017-10-02T16:10:09.931Z,17.60
2017-10-02T16:15:24.045Z,17.50
2017-10-02T16:17:54.899Z,17.30
2017-10-02T16:20:22.580Z,17.10
2017-10-02T16:22:50.962Z,17.40
2017-10-02T16:25:19.404Z,17.40
2017-10-02T16:27:47.020Z,17.40
2017-10-02T16:30:15.535Z,17.50
2017-10-02T16:32:43.129Z,17.40
2017-10-02T16:35:11.104Z,17.40
2017-10-02T16:37:38.770Z,17.50
2017-10-02T16:40:06.473Z,17.60
2017-10-02T16:42:34.081Z,17.60
2017-10-02T16:45:01.689Z,17.50
2017-10-02T16:47:29.703Z,17.40
2017-10-02T16:49:57.313Z,17.40
2017-10-02T16:52:24.904Z,17.40
2017-10-02T16:54:52.498Z,17.40
2017-10-02T16:57:20.104Z,17.40
2017-10-02T16:59:48.417Z,17.40
2017-10-02T17:02:16.814Z,17.50
2017-10-02T17:04:45.208Z,17.50
2017-10-02T17:07:13.953Z,17.50
2017-10-02T17:09:42.953Z,17.40
2017-10-02T17:12:10.651Z,17.40
2017-10-02T17:14:39.021Z,17.10
2017-10-02T17:17:07.404Z,17.30
2017-10-02T17:19:35.929Z,17.20
2017-10-02T17:22:04.195Z,17.00
2017-10-02T17:24:32.221Z,17.00
2017-10-02T17:26:59.829Z,17.20
2017-10-02T17:29:27.427Z,17.50
2017-10-02T17:31:55.179Z,17.60
2017-10-02T17:34:22.780Z,17.50
2017-10-02T17:36:51.889Z,17.50
2017-10-02T17:39:20.562Z,17.50
2017-10-02T17:41:48.936Z,17.50
2017-10-02T17:44:17.314Z,17.40
2017-10-02T17:46:45.690Z,17.50
2017-10-02T17:49:13.749Z,17.50
2017-10-02T17:51:41.372Z,17.70
2017-10-02T17:54:08.995Z,17.70
2017-10-02T17:56:37.752Z,17.70
2017-10-02T17:59:05.350Z,17.70
2017-10-02T18:01:33.031Z,17.60
2017-10-02T18:04:01.050Z,17.70
2017-10-02T18:06:28.693Z,17.80
2017-10-02T18:08:57.051Z,17.70
2017-10-02T18:11:25.338Z,17.70
2017-10-02T18:13:52.943Z,17.70
2017-10-02T18:16:21.322Z,17.60
2017-10-02T18:18:50.116Z,17.60
2017-10-02T18:21:18.039Z,17.50
2017-10-02T18:23:45.639Z,17.70
2017-10-02T18:26:14.452Z,17.50
2017-10-02T18:28:42.055Z,17.50
2017-10-02T18:31:09.657Z,17.50
2017-10-02T18:33:38.433Z,17.50
2017-10-02T18:36:06.029Z,17.50
2017-10-02T18:38:33.660Z,17.50
2017-10-02T18:41:03.770Z,17.10
2017-10-02T18:43:31.391Z,17.10
2017-10-02T18:45:59.415Z,17.00
2017-10-02T18:48:27.879Z,17.00
2017-10-02T18:50:55.508Z,17.00
2017-10-02T18:53:24.038Z,17.10
2017-10-02T18:55:52.493Z,17.20
2017-10-02T18:58:20.973Z,17.30
2017-10-02T19:00:50.657Z,17.30
2017-10-02T19:03:22.299Z,17.40
2017-10-02T19:05:50.329Z,17.40
2017-10-02T19:08:18.869Z,17.50
2017-10-02T19:10:46.497Z,17.50
2017-10-02T19:13:14.149Z,17.50
2017-10-02T19:15:41.803Z,17.50
2017-10-02T19:18:10.699Z,17.40
2017-10-02T19:20:40.043Z,17.50
2017-10-02T19:23:07.654Z,17.50
2017-10-02T19:25:36.030Z,17.30
2017-10-02T19:28:05.280Z,17.40
2017-10-02T19:30:35.923Z,17.20
2017-10-02T19:33:03.580Z,17.20
2017-10-02T19:35:31.197Z,17.20
2017-10-02T19:37:58.829Z,17.20
2017-10-02T19:40:26.474Z,17.30
2017-10-02T19:42:54.597Z,17.20
2017-10-02T19:45:22.206Z,17.10
2017-10-02T19:47:50.567Z,17.10
2017-10-02T19:50:19.064Z,17.10
2017-10-02T19:52:46.705Z,16.90
2017-10-02T19:55:14.697Z,16.90
2017-10-02T19:57:42.375Z,16.90
2017-10-02T20:00:10.304Z,16.90
2017-10-02T20:02:38.323Z,17.00
2017-10-02T20:05:06.718Z,17.40
2017-10-02T20:07:35.091Z,17.20
2017-10-02T20:10:04.021Z,17.30
2017-10-02T20:12:31.624Z,17.30
2017-10-02T20:14:59.697Z,17.30
2017-10-02T20:17:27.317Z,17.40
2017-10-02T20:19:54.920Z,17.10
2017-10-02T20:22:22.738Z,17.20
2017-10-02T20:24:51.178Z,17.30
2017-10-02T20:27:20.869Z,17.30
2017-10-02T20:29:48.601Z,17.20
2017-10-02T20:32:16.181Z,17.20
2017-10-02T20:34:43.800Z,17.30
2017-10-02T20:37:11.413Z,17.00
2017-10-02T20:39:39.498Z,17.20
2017-10-02T20:42:07.859Z,17.30
2017-10-02T20:44:35.790Z,17.30
2017-10-02T20:47:03.416Z,17.30
2017-10-02T20:49:31.017Z,17.10
2017-10-02T20:51:59.840Z,16.90
2017-10-02T20:54:27.437Z,17.00
2017-10-02T20:56:55.835Z,16.90
2017-10-02T20:59:23.840Z,17.00
2017-10-02T21:01:51.444Z,17.20
2017-10-02T21:04:19.078Z,17.10
2017-10-02T21:06:46.694Z,16.90
2017-10-02T21:09:14.381Z,16.80
2017-10-02T21:11:42.365Z,16.80
2017-10-02T21:14:09.976Z,17.00
2017-10-02T21:16:37.630Z,17.20
2017-10-02T21:19:05.302Z,17.30
2017-10-02T21:21:32.984Z,17.30
2017-10-02T21:24:01.796Z,17.40
2017-10-02T21:26:29.397Z,17.40
2017-10-02T21:28:57.002Z,17.50
2017-10-02T21:31:24.619Z,17.40
2017-10-02T21:33:52.212Z,17.30
2017-10-02T21:36:20.206Z,17.40
2017-10-02T21:38:47.796Z,17.60
2017-10-02T21:41:16.167Z,17.30
2017-10-02T21:43:44.911Z,17.40
2017-10-02T21:46:12.501Z,17.40
2017-10-02T21:48:40.122Z,17.20
2017-10-02T21:51:08.116Z,17.20
2017-10-02T21:53:35.716Z,17.10
2017-10-02T21:56:04.073Z,17.10
2017-10-02T21:58:32.128Z,17.10
2017-10-02T22:00:59.728Z,17.20
2017-10-02T22:03:28.089Z,17.10
2017-10-02T22:05:56.480Z,17.10
2017-10-02T22:08:24.858Z,17.00
2017-10-02T22:10:53.633Z,16.80
2017-10-02T22:13:21.246Z,16.80
2017-10-02T22:15:48.846Z,16.70
2017-10-02T22:18:16.544Z,16.60
2017-10-02T22:20:44.142Z,16.50
2017-10-02T22:23:12.240Z,16.60
2017-10-02T22:25:39.861Z,16.70
2017-10-02T22:28:07.464Z,16.70
